LRTR

Timişoara Traian Vuia Airport

Timişoara, Romania
TAF LRTR 230500Z 2306/2406 10008KT 5000 BR OVC025 BECMG 2307/2309 9999 NSW BECMG 2316/2318 3000 BR BKN010 BECMG 2318/2320 1500 BR BKN005 PROB40 TEMPO 2400/2405 0600 FZFG OVC002
Issued Valid From Valid To
Jan-23 @ 05:00 UTC
(2 hours ago)
Jan-23 @ 06:00 UTC
(an hour ago)
Jan-24 @ 06:00 UTC
(in 23 hours)
Expired Click to View Jan-23 @ 06:00 to Jan-23 @ 07:00
TAF LRTR 230500Z 2306/2406 10008KT 5000 BR OVC025
Wind Visibility Clouds Conditions
100° at 8 knots 5,005 meters
  • Overcast at 2,500' AGL
  • Mist
Becoming Jan-23 @ 07:00 to Jan-23 @ 16:00
BECMG 2307/2309 9999 NSW
Wind Visibility Clouds Conditions
100° at 8 knots 10,000+ meters
  • Overcast at 2,500' AGL
Becoming Jan-23 @ 16:00 to Jan-23 @ 18:00
BECMG 2316/2318 3000 BR BKN010
Wind Visibility Clouds Conditions
100° at 8 knots 2,993 meters
  • Broken at 1,000' AGL
  • Mist
Becoming Jan-23 @ 18:00 to Jan-24 @ 06:00
BECMG 2318/2320 1500 BR BKN005
Wind Visibility Clouds Conditions
100° at 8 knots 1,497 meters
  • Broken at 500' AGL
  • Mist
Temporary  (Probability 40%) Jan-24 @ 00:00 to Jan-24 @ 05:00
PROB40 TEMPO 2400/2405 0600 FZFG OVC002
Visibility Clouds Conditions
595 meters
  • Overcast at 200' AGL
  • Freezing
  • Fog
TAF LRTR 230500Z 2306/2406 10008KT 5000 BR OVC025 BECMG 2307/2309 9999 NSW BECMG 2316/2318 3000 BR BKN010 BECMG 2318/2320 1500 BR BKN005 PROB40 TEMPO 2400/2405 0600 FZFG OVC002
Issued Jan-23 @ 05:00 UTC
(2 hours ago)
Valid From Jan-23 @ 06:00 UTC
(an hour ago)
Valid To Jan-24 @ 06:00 UTC
(in 23 hours)
Jan-23 @ 06:00 - Jan-23 @ 07:00
Wind Visibility
100° at 8 knots 5,005 meters
Clouds
  • Overcast at 2,500' AGL
Conditions
  • Mist
Becoming Jan-23 @ 07:00 - Jan-23 @ 16:00
Wind Visibility
100° at 8 knots 10,000+ meters
Clouds
  • Overcast at 2,500' AGL
Conditions
Becoming Jan-23 @ 16:00 - Jan-23 @ 18:00
Wind Visibility
100° at 8 knots 2,993 meters
Clouds
  • Broken at 1,000' AGL
Conditions
  • Mist
Becoming Jan-23 @ 18:00 - Jan-24 @ 06:00
Wind Visibility
100° at 8 knots 1,497 meters
Clouds
  • Broken at 500' AGL
Conditions
  • Mist
Probability 40% Temporary Jan-24 @ 00:00 - Jan-24 @ 05:00
Clouds
  • Overcast at 200' AGL
Conditions
  • Freezing
  • Fog